sensor_id;sensor_type;location;lat;lon;timestamp;temperature;humidity
76384;SHT30;65204;48.606;7.598;2022-12-18T00:00:04;-1.67;71.78
76384;SHT30;65204;48.606;7.598;2022-12-18T00:00:48;-1.64;71.76
76384;SHT30;65204;48.606;7.598;2022-12-18T00:01:22;-1.64;71.77
76384;SHT30;65204;48.606;7.598;2022-12-18T00:01:53;-1.66;71.72
76384;SHT30;65204;48.606;7.598;2022-12-18T00:02:23;-1.67;71.64
76384;SHT30;65204;48.606;7.598;2022-12-18T00:02:55;-1.67;71.66
76384;SHT30;65204;48.606;7.598;2022-12-18T00:03:26;-1.68;71.71
76384;SHT30;65204;48.606;7.598;2022-12-18T00:03:57;-1.68;71.69
76384;SHT30;65204;48.606;7.598;2022-12-18T00:04:27;-1.66;71.68
76384;SHT30;65204;48.606;7.598;2022-12-18T00:04:58;-1.68;71.67
76384;SHT30;65204;48.606;7.598;2022-12-18T00:05:29;-1.67;71.63
76384;SHT30;65204;48.606;7.598;2022-12-18T00:05:59;-1.64;71.58
76384;SHT30;65204;48.606;7.598;2022-12-18T00:06:30;-1.61;71.53
76384;SHT30;65204;48.606;7.598;2022-12-18T00:07:01;-1.63;71.39
76384;SHT30;65204;48.606;7.598;2022-12-18T00:07:31;-1.64;71.43
76384;SHT30;65204;48.606;7.598;2022-12-18T00:08:02;-1.63;71.47
76384;SHT30;65204;48.606;7.598;2022-12-18T00:08:32;-1.67;71.52
76384;SHT30;65204;48.606;7.598;2022-12-18T00:09:03;-1.67;71.61
76384;SHT30;65204;48.606;7.598;2022-12-18T00:09:33;-1.70;71.67
76384;SHT30;65204;48.606;7.598;2022-12-18T00:10:04;-1.68;71.63
76384;SHT30;65204;48.606;7.598;2022-12-18T00:10:35;-1.67;71.60
76384;SHT30;65204;48.606;7.598;2022-12-18T00:11:07;-1.70;71.48
76384;SHT30;65204;48.606;7.598;2022-12-18T00:11:37;-1.71;71.57
76384;SHT30;65204;48.606;7.598;2022-12-18T00:12:08;-1.71;71.59
76384;SHT30;65204;48.606;7.598;2022-12-18T00:12:38;-1.70;71.64
76384;SHT30;65204;48.606;7.598;2022-12-18T00:13:09;-1.68;71.62
76384;SHT30;65204;48.606;7.598;2022-12-18T00:13:39;-1.68;71.59
76384;SHT30;65204;48.606;7.598;2022-12-18T00:14:13;-1.67;71.58
76384;SHT30;65204;48.606;7.598;2022-12-18T00:14:44;-1.67;71.68
76384;SHT30;65204;48.606;7.598;2022-12-18T00:15:14;-1.63;71.75
76384;SHT30;65204;48.606;7.598;2022-12-18T00:15:45;-1.66;71.77
76384;SHT30;65204;48.606;7.598;2022-12-18T00:16:18;-1.68;71.88
76384;SHT30;65204;48.606;7.598;2022-12-18T00:16:52;-1.67;71.85
76384;SHT30;65204;48.606;7.598;2022-12-18T00:17:22;-1.67;71.84
76384;SHT30;65204;48.606;7.598;2022-12-18T00:17:53;-1.68;71.76
76384;SHT30;65204;48.606;7.598;2022-12-18T00:18:23;-1.66;71.80
76384;SHT30;65204;48.606;7.598;2022-12-18T00:18:55;-1.64;71.78
76384;SHT30;65204;48.606;7.598;2022-12-18T00:19:26;-1.66;71.77
76384;SHT30;65204;48.606;7.598;2022-12-18T00:19:56;-1.64;71.78
76384;SHT30;65204;48.606;7.598;2022-12-18T00:20:27;-1.64;71.77
76384;SHT30;65204;48.606;7.598;2022-12-18T00:21:02;-1.63;71.73
76384;SHT30;65204;48.606;7.598;2022-12-18T00:21:33;-1.64;71.74
76384;SHT30;65204;48.606;7.598;2022-12-18T00:22:03;-1.64;71.73
76384;SHT30;65204;48.606;7.598;2022-12-18T00:22:34;-1.64;71.77
76384;SHT30;65204;48.606;7.598;2022-12-18T00:23:05;-1.68;71.80
76384;SHT30;65204;48.606;7.598;2022-12-18T00:23:36;-1.70;71.89
76384;SHT30;65204;48.606;7.598;2022-12-18T00:24:07;-1.71;71.88
76384;SHT30;65204;48.606;7.598;2022-12-18T00:24:38;-1.71;71.91
76384;SHT30;65204;48.606;7.598;2022-12-18T00:25:08;-1.71;71.91
76384;SHT30;65204;48.606;7.598;2022-12-18T00:25:39;-1.71;71.85
76384;SHT30;65204;48.606;7.598;2022-12-18T00:26:21;-1.71;71.94
76384;SHT30;65204;48.606;7.598;2022-12-18T00:26:52;-1.70;72.03
76384;SHT30;65204;48.606;7.598;2022-12-18T00:27:22;-1.70;72.06
76384;SHT30;65204;48.606;7.598;2022-12-18T00:27:53;-1.67;72.13
76384;SHT30;65204;48.606;7.598;2022-12-18T00:28:23;-1.66;72.20
76384;SHT30;65204;48.606;7.598;2022-12-18T00:28:54;-1.66;72.19
76384;SHT30;65204;48.606;7.598;2022-12-18T00:29:25;-1.70;72.15
76384;SHT30;65204;48.606;7.598;2022-12-18T00:29:56;-1.68;72.23
76384;SHT30;65204;48.606;7.598;2022-12-18T00:30:26;-1.67;72.34
76384;SHT30;65204;48.606;7.598;2022-12-18T00:31:04;-1.67;72.32
76384;SHT30;65204;48.606;7.598;2022-12-18T00:31:35;-1.68;72.38
76384;SHT30;65204;48.606;7.598;2022-12-18T00:32:05;-1.68;72.28
76384;SHT30;65204;48.606;7.598;2022-12-18T00:32:36;-1.67;72.32
76384;SHT30;65204;48.606;7.598;2022-12-18T00:33:07;-1.68;72.30
76384;SHT30;65204;48.606;7.598;2022-12-18T00:33:37;-1.66;72.31
76384;SHT30;65204;48.606;7.598;2022-12-18T00:34:10;-1.66;72.25
76384;SHT30;65204;48.606;7.598;2022-12-18T00:34:41;-1.66;72.30
76384;SHT30;65204;48.606;7.598;2022-12-18T00:35:12;-1.66;72.22
76384;SHT30;65204;48.606;7.598;2022-12-18T00:35:42;-1.67;72.17
76384;SHT30;65204;48.606;7.598;2022-12-18T00:36:19;-1.64;72.17
76384;SHT30;65204;48.606;7.598;2022-12-18T00:36:50;-1.68;72.09
76384;SHT30;65204;48.606;7.598;2022-12-18T00:37:21;-1.68;72.10
76384;SHT30;65204;48.606;7.598;2022-12-18T00:37:51;-1.66;72.16
76384;SHT30;65204;48.606;7.598;2022-12-18T00:38:22;-1.66;72.21
76384;SHT30;65204;48.606;7.598;2022-12-18T00:38:57;-1.68;72.26
76384;SHT30;65204;48.606;7.598;2022-12-18T00:39:27;-1.66;72.35
76384;SHT30;65204;48.606;7.598;2022-12-18T00:39:57;-1.67;72.33
76384;SHT30;65204;48.606;7.598;2022-12-18T00:40:28;-1.67;72.25
76384;SHT30;65204;48.606;7.598;2022-12-18T00:40:58;-1.66;72.23
76384;SHT30;65204;48.606;7.598;2022-12-18T00:41:28;-1.66;72.22
76384;SHT30;65204;48.606;7.598;2022-12-18T00:42:17;-1.66;72.14
76384;SHT30;65204;48.606;7.598;2022-12-18T00:43:06;-1.66;72.14
76384;SHT30;65204;48.606;7.598;2022-12-18T00:43:39;-1.68;72.17
76384;SHT30;65204;48.606;7.598;2022-12-18T00:44:12;-1.66;72.26
76384;SHT30;65204;48.606;7.598;2022-12-18T00:44:43;-1.68;72.25
76384;SHT30;65204;48.606;7.598;2022-12-18T00:45:13;-1.67;72.33
76384;SHT30;65204;48.606;7.598;2022-12-18T00:45:43;-1.64;72.23
76384;SHT30;65204;48.606;7.598;2022-12-18T00:46:14;-1.64;72.16
76384;SHT30;65204;48.606;7.598;2022-12-18T00:46:45;-1.67;72.15
76384;SHT30;65204;48.606;7.598;2022-12-18T00:47:16;-1.68;72.17
76384;SHT30;65204;48.606;7.598;2022-12-18T00:47:46;-1.67;72.28
76384;SHT30;65204;48.606;7.598;2022-12-18T00:48:17;-1.67;72.36
76384;SHT30;65204;48.606;7.598;2022-12-18T00:48:47;-1.68;72.40
76384;SHT30;65204;48.606;7.598;2022-12-18T00:49:19;-1.66;72.54
76384;SHT30;65204;48.606;7.598;2022-12-18T00:49:49;-1.68;72.48
76384;SHT30;65204;48.606;7.598;2022-12-18T00:50:20;-1.67;72.49
76384;SHT30;65204;48.606;7.598;2022-12-18T00:50:51;-1.68;72.43
76384;SHT30;65204;48.606;7.598;2022-12-18T00:51:21;-1.70;72.46
76384;SHT30;65204;48.606;7.598;2022-12-18T00:51:52;-1.67;72.49
76384;SHT30;65204;48.606;7.598;2022-12-18T00:52:25;-1.68;72.48
76384;SHT30;65204;48.606;7.598;2022-12-18T00:52:55;-1.68;72.44
76384;SHT30;65204;48.606;7.598;2022-12-18T00:53:25;-1.67;72.40
76384;SHT30;65204;48.606;7.598;2022-12-18T00:53:56;-1.67;72.32
76384;SHT30;65204;48.606;7.598;2022-12-18T00:54:26;-1.64;72.43
76384;SHT30;65204;48.606;7.598;2022-12-18T00:54:56;-1.67;72.42
76384;SHT30;65204;48.606;7.598;2022-12-18T00:55:27;-1.66;72.37
76384;SHT30;65204;48.606;7.598;2022-12-18T00:55:57;-1.64;72.40
76384;SHT30;65204;48.606;7.598;2022-12-18T00:56:27;-1.64;72.44
76384;SHT30;65204;48.606;7.598;2022-12-18T00:56:58;-1.63;72.39
76384;SHT30;65204;48.606;7.598;2022-12-18T00:57:28;-1.63;72.38
76384;SHT30;65204;48.606;7.598;2022-12-18T00:57:58;-1.63;72.47
76384;SHT30;65204;48.606;7.598;2022-12-18T00:58:29;-1.64;72.44
76384;SHT30;65204;48.606;7.598;2022-12-18T00:58:59;-1.61;72.54
76384;SHT30;65204;48.606;7.598;2022-12-18T00:59:29;-1.60;72.52
76384;SHT30;65204;48.606;7.598;2022-12-18T01:00:01;-1.61;72.44
76384;SHT30;65204;48.606;7.598;2022-12-18T01:00:31;-1.61;72.39
76384;SHT30;65204;48.606;7.598;2022-12-18T01:01:04;-1.61;72.41
76384;SHT30;65204;48.606;7.598;2022-12-18T01:01:34;-1.64;72.48
76384;SHT30;65204;48.606;7.598;2022-12-18T01:02:05;-1.63;72.50
76384;SHT30;65204;48.606;7.598;2022-12-18T01:02:35;-1.64;72.48
76384;SHT30;65204;48.606;7.598;2022-12-18T01:03:05;-1.64;72.48
76384;SHT30;65204;48.606;7.598;2022-12-18T01:03:36;-1.61;72.46
76384;SHT30;65204;48.606;7.598;2022-12-18T01:04:06;-1.61;72.47
76384;SHT30;65204;48.606;7.598;2022-12-18T01:04:37;-1.64;72.46
76384;SHT30;65204;48.606;7.598;2022-12-18T01:05:08;-1.63;72.51
76384;SHT30;65204;48.606;7.598;2022-12-18T01:05:40;-1.64;72.57
76384;SHT30;65204;48.606;7.598;2022-12-18T01:06:13;-1.61;72.58
76384;SHT30;65204;48.606;7.598;2022-12-18T01:06:43;-1.63;72.76
76384;SHT30;65204;48.606;7.598;2022-12-18T01:07:13;-1.60;72.77
76384;SHT30;65204;48.606;7.598;2022-12-18T01:07:44;-1.60;72.76
76384;SHT30;65204;48.606;7.598;2022-12-18T01:08:14;-1.59;72.68
76384;SHT30;65204;48.606;7.598;2022-12-18T01:08:44;-1.61;72.65
76384;SHT30;65204;48.606;7.598;2022-12-18T01:09:15;-1.60;72.67
76384;SHT30;65204;48.606;7.598;2022-12-18T01:09:45;-1.60;72.63
76384;SHT30;65204;48.606;7.598;2022-12-18T01:10:15;-1.60;72.62
76384;SHT30;65204;48.606;7.598;2022-12-18T01:10:46;-1.60;72.60
76384;SHT30;65204;48.606;7.598;2022-12-18T01:11:19;-1.56;72.52
76384;SHT30;65204;48.606;7.598;2022-12-18T01:11:49;-1.56;72.43
76384;SHT30;65204;48.606;7.598;2022-12-18T01:12:20;-1.56;72.23
76384;SHT30;65204;48.606;7.598;2022-12-18T01:12:50;-1.56;72.26
76384;SHT30;65204;48.606;7.598;2022-12-18T01:13:21;-1.56;72.42
76384;SHT30;65204;48.606;7.598;2022-12-18T01:13:52;-1.56;72.49
76384;SHT30;65204;48.606;7.598;2022-12-18T01:14:23;-1.59;72.73
76384;SHT30;65204;48.606;7.598;2022-12-18T01:14:53;-1.61;72.88
76384;SHT30;65204;48.606;7.598;2022-12-18T01:15:24;-1.64;73.03
76384;SHT30;65204;48.606;7.598;2022-12-18T01:15:54;-1.64;72.98
76384;SHT30;65204;48.606;7.598;2022-12-18T01:16:24;-1.61;72.94
76384;SHT30;65204;48.606;7.598;2022-12-18T01:16:55;-1.61;72.90
76384;SHT30;65204;48.606;7.598;2022-12-18T01:17:25;-1.61;72.83
76384;SHT30;65204;48.606;7.598;2022-12-18T01:17:55;-1.64;72.57
76384;SHT30;65204;48.606;7.598;2022-12-18T01:18:26;-1.64;72.52
76384;SHT30;65204;48.606;7.598;2022-12-18T01:18:56;-1.67;72.73
76384;SHT30;65204;48.606;7.598;2022-12-18T01:19:26;-1.67;72.83
76384;SHT30;65204;48.606;7.598;2022-12-18T01:19:57;-1.66;72.87
76384;SHT30;65204;48.606;7.598;2022-12-18T01:20:27;-1.67;73.00
76384;SHT30;65204;48.606;7.598;2022-12-18T01:20:58;-1.63;72.86
76384;SHT30;65204;48.606;7.598;2022-12-18T01:21:28;-1.59;73.00
76384;SHT30;65204;48.606;7.598;2022-12-18T01:21:58;-1.61;73.04
76384;SHT30;65204;48.606;7.598;2022-12-18T01:22:29;-1.60;73.00
76384;SHT30;65204;48.606;7.598;2022-12-18T01:22:59;-1.61;72.88
76384;SHT30;65204;48.606;7.598;2022-12-18T01:23:30;-1.60;72.90
76384;SHT30;65204;48.606;7.598;2022-12-18T01:24:00;-1.59;72.86
76384;SHT30;65204;48.606;7.598;2022-12-18T01:24:30;-1.59;72.82
76384;SHT30;65204;48.606;7.598;2022-12-18T01:25:01;-1.61;72.82
76384;SHT30;65204;48.606;7.598;2022-12-18T01:25:31;-1.59;72.83
76384;SHT30;65204;48.606;7.598;2022-12-18T01:26:07;-1.61;72.89
76384;SHT30;65204;48.606;7.598;2022-12-18T01:26:38;-1.59;72.89
76384;SHT30;65204;48.606;7.598;2022-12-18T01:27:08;-1.59;72.89
76384;SHT30;65204;48.606;7.598;2022-12-18T01:27:39;-1.57;72.82
76384;SHT30;65204;48.606;7.598;2022-12-18T01:28:09;-1.60;72.76
76384;SHT30;65204;48.606;7.598;2022-12-18T01:28:40;-1.56;72.68
76384;SHT30;65204;48.606;7.598;2022-12-18T01:29:11;-1.59;72.69
76384;SHT30;65204;48.606;7.598;2022-12-18T01:29:41;-1.59;72.74
76384;SHT30;65204;48.606;7.598;2022-12-18T01:30:12;-1.59;72.76
76384;SHT30;65204;48.606;7.598;2022-12-18T01:30:43;-1.60;72.70
76384;SHT30;65204;48.606;7.598;2022-12-18T01:31:16;-1.60;72.91
76384;SHT30;65204;48.606;7.598;2022-12-18T01:31:47;-1.61;72.89
76384;SHT30;65204;48.606;7.598;2022-12-18T01:32:18;-1.59;72.77
76384;SHT30;65204;48.606;7.598;2022-12-18T01:32:48;-1.60;72.82
76384;SHT30;65204;48.606;7.598;2022-12-18T01:33:19;-1.59;72.78
76384;SHT30;65204;48.606;7.598;2022-12-18T01:33:50;-1.57;72.74
76384;SHT30;65204;48.606;7.598;2022-12-18T01:34:20;-1.61;72.79
76384;SHT30;65204;48.606;7.598;2022-12-18T01:34:51;-1.59;72.76
76384;SHT30;65204;48.606;7.598;2022-12-18T01:35:21;-1.59;72.63
76384;SHT30;65204;48.606;7.598;2022-12-18T01:35:51;-1.60;72.67
76384;SHT30;65204;48.606;7.598;2022-12-18T01:36:24;-1.63;72.77
76384;SHT30;65204;48.606;7.598;2022-12-18T01:36:55;-1.60;72.84
76384;SHT30;65204;48.606;7.598;2022-12-18T01:37:25;-1.63;72.86
76384;SHT30;65204;48.606;7.598;2022-12-18T01:37:55;-1.63;72.82
76384;SHT30;65204;48.606;7.598;2022-12-18T01:38:28;-1.63;72.79
76384;SHT30;65204;48.606;7.598;2022-12-18T01:39:00;-1.63;72.87
76384;SHT30;65204;48.606;7.598;2022-12-18T01:39:31;-1.63;72.81
76384;SHT30;65204;48.606;7.598;2022-12-18T01:40:02;-1.60;72.88
76384;SHT30;65204;48.606;7.598;2022-12-18T01:40:32;-1.61;72.90
76384;SHT30;65204;48.606;7.598;2022-12-18T01:41:03;-1.61;72.84
76384;SHT30;65204;48.606;7.598;2022-12-18T01:41:34;-1.63;72.80
76384;SHT30;65204;48.606;7.598;2022-12-18T01:42:23;-1.61;72.68
76384;SHT30;65204;48.606;7.598;2022-12-18T01:42:55;-1.60;72.70
76384;SHT30;65204;48.606;7.598;2022-12-18T01:45:54;-1.63;72.70
76384;SHT30;65204;48.606;7.598;2022-12-18T01:46:26;-1.60;72.75
76384;SHT30;65204;48.606;7.598;2022-12-18T01:46:56;-1.63;72.99
76384;SHT30;65204;48.606;7.598;2022-12-18T01:48:03;-1.64;73.15
76384;SHT30;65204;48.606;7.598;2022-12-18T01:48:35;-1.66;73.22
76384;SHT30;65204;48.606;7.598;2022-12-18T01:49:05;-1.63;73.19
76384;SHT30;65204;48.606;7.598;2022-12-18T01:49:35;-1.67;73.19
76384;SHT30;65204;48.606;7.598;2022-12-18T01:50:27;-1.64;73.30
76384;SHT30;65204;48.606;7.598;2022-12-18T01:50:59;-1.61;73.23
76384;SHT30;65204;48.606;7.598;2022-12-18T01:51:30;-1.61;73.07
76384;SHT30;65204;48.606;7.598;2022-12-18T01:52:00;-1.61;73.11
76384;SHT30;65204;48.606;7.598;2022-12-18T01:52:32;-1.64;73.26
76384;SHT30;65204;48.606;7.598;2022-12-18T01:53:22;-1.60;73.36
76384;SHT30;65204;48.606;7.598;2022-12-18T01:53:53;-1.59;73.29
76384;SHT30;65204;48.606;7.598;2022-12-18T01:54:24;-1.61;73.25
76384;SHT30;65204;48.606;7.598;2022-12-18T01:54:55;-1.57;73.21
76384;SHT30;65204;48.606;7.598;2022-12-18T01:55:29;-1.57;73.26
76384;SHT30;65204;48.606;7.598;2022-12-18T01:55:59;-1.59;73.19
76384;SHT30;65204;48.606;7.598;2022-12-18T01:56:31;-1.59;73.24
76384;SHT30;65204;48.606;7.598;2022-12-18T01:57:01;-1.59;73.19
76384;SHT30;65204;48.606;7.598;2022-12-18T01:57:33;-1.60;73.13
76384;SHT30;65204;48.606;7.598;2022-12-18T01:58:04;-1.59;73.24
76384;SHT30;65204;48.606;7.598;2022-12-18T01:59:27;-1.61;73.07
76384;SHT30;65204;48.606;7.598;2022-12-18T02:00:03;-1.63;73.01
76384;SHT30;65204;48.606;7.598;2022-12-18T02:00:34;-1.61;73.05
76384;SHT30;65204;48.606;7.598;2022-12-18T02:01:04;-1.61;73.04
76384;SHT30;65204;48.606;7.598;2022-12-18T02:01:36;-1.61;73.01
76384;SHT30;65204;48.606;7.598;2022-12-18T02:02:07;-1.61;73.12
76384;SHT30;65204;48.606;7.598;2022-12-18T02:02:39;-1.66;73.31
76384;SHT30;65204;48.606;7.598;2022-12-18T02:03:10;-1.61;73.37
76384;SHT30;65204;48.606;7.598;2022-12-18T02:03:41;-1.63;73.22
76384;SHT30;65204;48.606;7.598;2022-12-18T02:04:24;-1.61;72.83
76384;SHT30;65204;48.606;7.598;2022-12-18T02:04:54;-1.63;72.75
76384;SHT30;65204;48.606;7.598;2022-12-18T02:05:44;-1.60;72.73
76384;SHT30;65204;48.606;7.598;2022-12-18T02:06:21;-1.59;72.68
76384;SHT30;65204;48.606;7.598;2022-12-18T02:07:01;-1.59;72.61
76384;SHT30;65204;48.606;7.598;2022-12-18T02:08:27;-1.59;72.54
76384;SHT30;65204;48.606;7.598;2022-12-18T02:09:07;-1.53;72.53
76384;SHT30;65204;48.606;7.598;2022-12-18T02:09:48;-1.54;72.57
76384;SHT30;65204;48.606;7.598;2022-12-18T02:10:39;-1.54;72.59
76384;SHT30;65204;48.606;7.598;2022-12-18T02:11:19;-1.56;72.60
76384;SHT30;65204;48.606;7.598;2022-12-18T02:12:13;-1.51;72.78
76384;SHT30;65204;48.606;7.598;2022-12-18T02:13:10;-1.53;72.87
76384;SHT30;65204;48.606;7.598;2022-12-18T02:14:13;-1.54;73.08
76384;SHT30;65204;48.606;7.598;2022-12-18T02:14:59;-1.57;73.05
76384;SHT30;65204;48.606;7.598;2022-12-18T02:15:38;-1.57;72.89
76384;SHT30;65204;48.606;7.598;2022-12-18T02:17:22;-1.59;72.71
76384;SHT30;65204;48.606;7.598;2022-12-18T02:18:19;-1.60;72.71
76384;SHT30;65204;48.606;7.598;2022-12-18T02:18:57;-1.60;72.64
76384;SHT30;65204;48.606;7.598;2022-12-18T02:20:28;-1.61;72.80
76384;SHT30;65204;48.606;7.598;2022-12-18T02:20:54;-1.61;72.81
76384;SHT30;65204;48.606;7.598;2022-12-18T02:21:34;-1.61;72.57
76384;SHT30;65204;48.606;7.598;2022-12-18T02:23:19;-1.61;72.40
76384;SHT30;65204;48.606;7.598;2022-12-18T02:24:26;-1.60;72.33
76384;SHT30;65204;48.606;7.598;2022-12-18T02:26:45;-1.63;72.38
76384;SHT30;65204;48.606;7.598;2022-12-18T02:27:17;-1.67;72.35
76384;SHT30;65204;48.606;7.598;2022-12-18T02:27:50;-1.66;72.45
76384;SHT30;65204;48.606;7.598;2022-12-18T02:28:24;-1.67;72.48
76384;SHT30;65204;48.606;7.598;2022-12-18T02:29:08;-1.68;72.53
76384;SHT30;65204;48.606;7.598;2022-12-18T02:29:41;-1.68;72.54
76384;SHT30;65204;48.606;7.598;2022-12-18T02:30:14;-1.67;72.56
76384;SHT30;65204;48.606;7.598;2022-12-18T02:30:47;-1.67;72.54
76384;SHT30;65204;48.606;7.598;2022-12-18T02:31:23;-1.66;72.47
76384;SHT30;65204;48.606;7.598;2022-12-18T02:32:00;-1.66;72.27
76384;SHT30;65204;48.606;7.598;2022-12-18T02:32:37;-1.64;72.23
76384;SHT30;65204;48.606;7.598;2022-12-18T02:33:11;-1.64;72.18
76384;SHT30;65204;48.606;7.598;2022-12-18T02:33:44;-1.61;72.10
76384;SHT30;65204;48.606;7.598;2022-12-18T02:34:17;-1.60;71.99
76384;SHT30;65204;48.606;7.598;2022-12-18T02:34:50;-1.64;71.92
76384;SHT30;65204;48.606;7.598;2022-12-18T02:35:23;-1.67;72.02
76384;SHT30;65204;48.606;7.598;2022-12-18T02:35:57;-1.70;71.97
76384;SHT30;65204;48.606;7.598;2022-12-18T02:36:28;-1.66;71.97
76384;SHT30;65204;48.606;7.598;2022-12-18T02:37:01;-1.68;71.89
76384;SHT30;65204;48.606;7.598;2022-12-18T02:37:34;-1.68;72.00
76384;SHT30;65204;48.606;7.598;2022-12-18T02:38:05;-1.70;72.04
76384;SHT30;65204;48.606;7.598;2022-12-18T02:38:36;-1.70;72.06
76384;SHT30;65204;48.606;7.598;2022-12-18T02:39:09;-1.73;72.05
76384;SHT30;65204;48.606;7.598;2022-12-18T02:39:43;-1.71;72.06
76384;SHT30;65204;48.606;7.598;2022-12-18T02:40:15;-1.73;72.12
76384;SHT30;65204;48.606;7.598;2022-12-18T02:40:48;-1.74;72.09
76384;SHT30;65204;48.606;7.598;2022-12-18T02:41:20;-1.73;72.07
76384;SHT30;65204;48.606;7.598;2022-12-18T02:41:51;-1.74;72.15
76384;SHT30;65204;48.606;7.598;2022-12-18T02:42:22;-1.74;72.25
76384;SHT30;65204;48.606;7.598;2022-12-18T02:42:52;-1.75;72.28
76384;SHT30;65204;48.606;7.598;2022-12-18T02:43:23;-1.74;72.25
76384;SHT30;65204;48.606;7.598;2022-12-18T02:43:57;-1.75;72.25
76384;SHT30;65204;48.606;7.598;2022-12-18T02:44:27;-1.75;72.19
76384;SHT30;65204;48.606;7.598;2022-12-18T02:44:58;-1.71;72.06
76384;SHT30;65204;48.606;7.598;2022-12-18T02:45:28;-1.73;72.05
76384;SHT30;65204;48.606;7.598;2022-12-18T02:46:00;-1.71;72.11
76384;SHT30;65204;48.606;7.598;2022-12-18T02:47:04;-1.74;72.10
76384;SHT30;65204;48.606;7.598;2022-12-18T02:47:38;-1.78;72.18
76384;SHT30;65204;48.606;7.598;2022-12-18T02:48:09;-1.77;72.27
76384;SHT30;65204;48.606;7.598;2022-12-18T02:48:39;-1.80;72.35
76384;SHT30;65204;48.606;7.598;2022-12-18T02:49:32;-1.78;72.84
76384;SHT30;65204;48.606;7.598;2022-12-18T02:50:30;-1.80;73.19
76384;SHT30;65204;48.606;7.598;2022-12-18T02:51:22;-1.75;72.97
76384;SHT30;65204;48.606;7.598;2022-12-18T02:52:00;-1.77;72.95
76384;SHT30;65204;48.606;7.598;2022-12-18T02:53:39;-1.78;72.71
76384;SHT30;65204;48.606;7.598;2022-12-18T02:55:16;-1.77;72.79
76384;SHT30;65204;48.606;7.598;2022-12-18T02:56:22;-1.73;72.88
76384;SHT30;65204;48.606;7.598;2022-12-18T02:56:58;-1.73;72.94
76384;SHT30;65204;48.606;7.598;2022-12-18T02:57:40;-1.75;73.11
76384;SHT30;65204;48.606;7.598;2022-12-18T02:58:20;-1.74;72.81
76384;SHT30;65204;48.606;7.598;2022-12-18T02:59:02;-1.74;72.87
76384;SHT30;65204;48.606;7.598;2022-12-18T02:59:41;-1.74;73.04
76384;SHT30;65204;48.606;7.598;2022-12-18T03:00:35;-1.71;73.07
76384;SHT30;65204;48.606;7.598;2022-12-18T03:01:24;-1.71;73.00
76384;SHT30;65204;48.606;7.598;2022-12-18T03:02:18;-1.70;72.76
76384;SHT30;65204;48.606;7.598;2022-12-18T03:03:46;-1.68;72.84
76384;SHT30;65204;48.606;7.598;2022-12-18T03:04:14;-1.68;72.69
76384;SHT30;65204;48.606;7.598;2022-12-18T03:04:55;-1.67;72.72
76384;SHT30;65204;48.606;7.598;2022-12-18T03:05:33;-1.66;72.78
76384;SHT30;65204;48.606;7.598;2022-12-18T03:06:10;-1.67;72.80
76384;SHT30;65204;48.606;7.598;2022-12-18T03:06:48;-1.68;72.85
76384;SHT30;65204;48.606;7.598;2022-12-18T03:07:25;-1.71;72.80
76384;SHT30;65204;48.606;7.598;2022-12-18T03:08:29;-1.67;72.60
76384;SHT30;65204;48.606;7.598;2022-12-18T03:09:02;-1.68;72.64
76384;SHT30;65204;48.606;7.598;2022-12-18T03:09:38;-1.66;72.67
76384;SHT30;65204;48.606;7.598;2022-12-18T03:10:13;-1.63;72.72
76384;SHT30;65204;48.606;7.598;2022-12-18T03:10:51;-1.61;72.72
76384;SHT30;65204;48.606;7.598;2022-12-18T03:11:23;-1.60;72.70
76384;SHT30;65204;48.606;7.598;2022-12-18T03:12:18;-1.59;72.58
76384;SHT30;65204;48.606;7.598;2022-12-18T03:13:05;-1.61;72.57
76384;SHT30;65204;48.606;7.598;2022-12-18T03:13:42;-1.60;72.51
76384;SHT30;65204;48.606;7.598;2022-12-18T03:14:15;-1.59;72.51
76384;SHT30;65204;48.606;7.598;2022-12-18T03:14:49;-1.59;72.45
76384;SHT30;65204;48.606;7.598;2022-12-18T03:15:25;-1.56;72.44
76384;SHT30;65204;48.606;7.598;2022-12-18T03:15:58;-1.57;72.49
76384;SHT30;65204;48.606;7.598;2022-12-18T03:16:31;-1.57;72.53
76384;SHT30;65204;48.606;7.598;2022-12-18T03:17:03;-1.57;72.53
76384;SHT30;65204;48.606;7.598;2022-12-18T03:17:36;-1.57;72.43
76384;SHT30;65204;48.606;7.598;2022-12-18T03:18:23;-1.56;72.46
76384;SHT30;65204;48.606;7.598;2022-12-18T03:18:58;-1.57;72.45
76384;SHT30;65204;48.606;7.598;2022-12-18T03:19:32;-1.57;72.40
76384;SHT30;65204;48.606;7.598;2022-12-18T03:20:09;-1.56;72.37
76384;SHT30;65204;48.606;7.598;2022-12-18T03:20:42;-1.56;72.34
76384;SHT30;65204;48.606;7.598;2022-12-18T03:21:14;-1.53;72.29
76384;SHT30;65204;48.606;7.598;2022-12-18T03:21:48;-1.53;72.21
76384;SHT30;65204;48.606;7.598;2022-12-18T03:22:20;-1.51;72.26
76384;SHT30;65204;48.606;7.598;2022-12-18T03:22:57;-1.51;72.25
76384;SHT30;65204;48.606;7.598;2022-12-18T03:23:35;-1.51;72.29
76384;SHT30;65204;48.606;7.598;2022-12-18T03:24:08;-1.50;72.25
76384;SHT30;65204;48.606;7.598;2022-12-18T03:24:39;-1.50;72.21
76384;SHT30;65204;48.606;7.598;2022-12-18T03:25:12;-1.50;72.12
76384;SHT30;65204;48.606;7.598;2022-12-18T03:25:44;-1.51;72.07
76384;SHT30;65204;48.606;7.598;2022-12-18T03:26:20;-1.50;72.11
76384;SHT30;65204;48.606;7.598;2022-12-18T03:26:54;-1.50;72.16
76384;SHT30;65204;48.606;7.598;2022-12-18T03:27:28;-1.50;72.15
76384;SHT30;65204;48.606;7.598;2022-12-18T03:28:03;-1.50;72.12
76384;SHT30;65204;48.606;7.598;2022-12-18T03:28:40;-1.53;71.87
76384;SHT30;65204;48.606;7.598;2022-12-18T03:29:21;-1.50;71.76
76384;SHT30;65204;48.606;7.598;2022-12-18T03:30:00;-1.50;71.78
76384;SHT30;65204;48.606;7.598;2022-12-18T03:30:38;-1.53;71.85
76384;SHT30;65204;48.606;7.598;2022-12-18T03:31:12;-1.49;71.91
76384;SHT30;65204;48.606;7.598;2022-12-18T03:31:48;-1.51;71.95
76384;SHT30;65204;48.606;7.598;2022-12-18T03:32:25;-1.50;71.99
76384;SHT30;65204;48.606;7.598;2022-12-18T03:33:58;-1.46;71.85
76384;SHT30;65204;48.606;7.598;2022-12-18T03:34:33;-1.46;71.84
76384;SHT30;65204;48.606;7.598;2022-12-18T03:35:05;-1.47;71.91
76384;SHT30;65204;48.606;7.598;2022-12-18T03:35:39;-1.46;71.90
76384;SHT30;65204;48.606;7.598;2022-12-18T03:36:11;-1.44;71.86
76384;SHT30;65204;48.606;7.598;2022-12-18T03:36:42;-1.44;71.74
76384;SHT30;65204;48.606;7.598;2022-12-18T03:37:12;-1.43;71.74
76384;SHT30;65204;48.606;7.598;2022-12-18T03:37:43;-1.43;71.48
76384;SHT30;65204;48.606;7.598;2022-12-18T03:38:13;-1.47;71.65
76384;SHT30;65204;48.606;7.598;2022-12-18T03:38:44;-1.49;71.60
76384;SHT30;65204;48.606;7.598;2022-12-18T03:39:14;-1.46;71.59
76384;SHT30;65204;48.606;7.598;2022-12-18T03:39:45;-1.47;71.66
76384;SHT30;65204;48.606;7.598;2022-12-18T03:40:15;-1.47;71.68
76384;SHT30;65204;48.606;7.598;2022-12-18T03:41:19;-1.46;71.67
76384;SHT30;65204;48.606;7.598;2022-12-18T03:42:53;-1.46;71.33
76384;SHT30;65204;48.606;7.598;2022-12-18T03:45:24;-1.47;71.25
76384;SHT30;65204;48.606;7.598;2022-12-18T03:46:22;-1.49;71.34
76384;SHT30;65204;48.606;7.598;2022-12-18T03:47:14;-1.49;71.36
76384;SHT30;65204;48.606;7.598;2022-12-18T03:47:55;-1.49;71.43
76384;SHT30;65204;48.606;7.598;2022-12-18T03:48:33;-1.50;71.33
76384;SHT30;65204;48.606;7.598;2022-12-18T03:49:16;-1.51;71.24
76384;SHT30;65204;48.606;7.598;2022-12-18T03:50:15;-1.51;71.34
76384;SHT30;65204;48.606;7.598;2022-12-18T03:50:59;-1.50;71.51
76384;SHT30;65204;48.606;7.598;2022-12-18T03:51:45;-1.49;71.48